Schedule Details


Flight Number: CTN412
Departure: Kastela (LDSP) at 14:45
Arrival: Frankfurt/main (EDDF) at 16:35
Route: ZDA DCT BUSET DCT VEKEN DCT ERKIR UQ863 TEKSI/N0450F300 UQ863 ETASA T163 PSA

Weather Information
LDSP 290230Z AUTO 28008KT CAVOK 13/06 Q1008
EDDF 290220Z 20010KT 9999 FEW012 SCT030 02/01 Q1003 NOSIG
Schedule Frequency

Route Map